Time;durP1;ratioP1;P1;durP2;ratioP2;P2;SDS_P1;SDS_P2;PMS_P1;PMS_P2;Temp;Humidity;BMP_temperature;BMP_pressure;BME280_temperature;BME280_humidity;BME280_pressure;Samples;Min_cycle;Max_cycle;Signal;HPM_P1;HPM_P2
2022/02/02 00:02:32;;;;;;;6.95;2.53;;;6.10;99.90;;;;;;5050172;28;20203;-51
2022/02/02 00:05:14;;;;;;;4.20;2.38;;;6.10;99.90;;;;;;5035730;28;22145;-51
2022/02/02 00:07:50;;;;;;;7.50;3.03;;;6.10;99.90;;;;;;5050132;28;20291;-51
2022/02/02 00:10:42;;;;;;;4.97;2.60;;;6.10;99.90;;;;;;5049891;28;20327;-52
2022/02/02 00:13:13;;;;;;;5.95;2.15;;;6.10;99.90;;;;;;5030304;28;20727;-51
2022/02/02 00:15:51;;;;;;;5.75;2.45;;;6.10;99.90;;;;;;5048803;28;20196;-49
2022/02/02 00:18:44;;;;;;;4.78;2.25;;;6.10;99.90;;;;;;5042927;28;20749;-51
2022/02/02 00:21:19;;;;;;;4.85;2.58;;;6.10;99.90;;;;;;5050345;28;20618;-50
2022/02/02 00:23:50;;;;;;;5.85;2.20;;;6.10;99.90;;;;;;5050536;28;20311;-50
2022/02/02 00:26:25;;;;;;;4.50;1.75;;;6.10;99.90;;;;;;5044504;28;20404;-50
2022/02/02 00:28:58;;;;;;;6.70;2.45;;;6.10;99.90;;;;;;5031896;28;20244;-52
2022/02/02 00:31:31;;;;;;;4.72;2.38;;;6.10;99.90;;;;;;5051558;28;20262;-50
2022/02/02 00:34:03;;;;;;;6.82;2.30;;;6.10;99.90;;;;;;5048295;28;20684;-50
2022/02/02 00:36:41;;;;;;;7.25;2.40;;;6.10;99.90;;;;;;5052329;28;20196;-51
2022/02/02 00:39:09;;;;;;;3.97;2.50;;;6.10;99.90;;;;;;5051298;28;20251;-51
2022/02/02 00:41:39;;;;;;;5.38;2.10;;;6.10;99.90;;;;;;5053377;28;20243;-51
2022/02/02 00:44:08;;;;;;;4.35;2.88;;;6.10;99.90;;;;;;5048463;28;20220;-50
2022/02/02 00:46:37;;;;;;;4.22;2.05;;;6.10;99.90;;;;;;5049645;28;20240;-51
2022/02/02 00:49:06;;;;;;;2.42;1.88;;;6.10;99.90;;;;;;5043648;28;20711;-50
2022/02/02 00:51:41;;;;;;;7.15;2.40;;;6.10;99.90;;;;;;5050161;28;20651;-51
2022/02/02 00:54:11;;;;;;;5.95;2.35;;;6.10;99.90;;;;;;5048256;28;20238;-50
2022/02/02 00:56:41;;;;;;;5.45;2.80;;;6.10;99.90;;;;;;5048991;28;20283;-50
2022/02/02 00:59:09;;;;;;;4.60;2.30;;;6.10;99.90;;;;;;5048554;28;20579;-51
2022/02/02 01:01:37;;;;;;;5.38;2.50;;;6.10;99.90;;;;;;5049290;28;20727;-50
2022/02/02 01:04:05;;;;;;;7.05;4.05;;;6.10;99.90;;;;;;5033214;28;20275;-50
2022/02/02 01:06:38;;;;;;;5.68;2.05;;;6.10;99.90;;;;;;5032642;28;20220;-50
2022/02/02 01:09:17;;;;;;;4.63;2.35;;;6.10;99.90;;;;;;5048704;28;20739;-50
2022/02/02 01:12:04;;;;;;;5.50;2.00;;;6.10;99.90;;;;;;5048742;28;20204;-51
2022/02/02 01:15:40;;;;;;;7.82;2.65;;;6.10;99.90;;;;;;5046421;28;20602;-51
2022/02/02 01:18:15;;;;;;;12.30;2.22;;;6.20;99.90;;;;;;5041172;28;20244;-50
2022/02/02 01:20:54;;;;;;;3.30;1.90;;;6.10;99.90;;;;;;5045635;28;20311;-50
2022/02/02 01:28:57;;;;;;;5.63;2.45;;;6.20;99.90;;;;;;5048132;28;20225;-50
2022/02/02 01:31:25;;;;;;;5.43;2.90;;;6.20;99.90;;;;;;5047736;28;20188;-50
2022/02/02 01:33:53;;;;;;;8.48;2.53;;;6.20;99.90;;;;;;5040173;28;20222;-51
2022/02/02 01:36:21;;;;;;;3.80;1.80;;;6.20;99.90;;;;;;5048391;28;20215;-51
2022/02/02 01:38:51;;;;;;;5.95;2.65;;;6.20;99.90;;;;;;5047597;28;20242;-50
2022/02/02 01:41:28;;;;;;;4.15;2.95;;;6.20;99.90;;;;;;5048582;28;20189;-50
2022/02/02 01:44:05;;;;;;;5.72;2.33;;;6.20;99.90;;;;;;5044887;28;20216;-51
2022/02/02 01:46:36;;;;;;;7.72;2.92;;;6.20;99.90;;;;;;5048367;28;20231;-51
2022/02/02 01:52:40;;;;;;;4.35;2.15;;;6.20;99.90;;;;;;5126057;27;20602;-51
2022/02/02 01:55:11;;;;;;;7.10;2.55;;;6.20;99.90;;;;;;5107464;27;20222;-52
2022/02/02 01:58:01;;;;;;;5.00;2.33;;;6.20;99.90;;;;;;5095472;28;20730;-52
2022/02/02 02:00:30;;;;;;;7.75;2.50;;;6.20;99.90;;;;;;5045881;28;20838;-51
2022/02/02 02:02:59;;;;;;;6.03;2.60;;;6.20;99.90;;;;;;5060018;28;20736;-52
2022/02/02 02:05:27;;;;;;;3.08;2.08;;;6.20;99.90;;;;;;5061019;28;20230;-51
2022/02/02 02:07:57;;;;;;;4.50;2.20;;;6.20;99.90;;;;;;5064869;28;20731;-51
2022/02/02 02:10:25;;;;;;;6.45;2.55;;;6.20;99.90;;;;;;5063319;28;20254;-50
2022/02/02 02:12:57;;;;;;;5.78;2.92;;;6.20;99.90;;;;;;5052195;28;20670;-52
2022/02/02 02:15:29;;;;;;;4.72;2.25;;;6.20;99.90;;;;;;5064872;28;20265;-51
2022/02/02 02:17:59;;;;;;;3.63;1.83;;;6.20;99.90;;;;;;5063721;28;20192;-50
2022/02/02 02:20:27;;;;;;;6.10;2.72;;;6.20;99.90;;;;;;5064576;28;20232;-51
2022/02/02 02:22:57;;;;;;;5.43;2.70;;;6.20;99.90;;;;;;5046778;28;20556;-51
2022/02/02 02:25:29;;;;;;;4.53;2.58;;;6.20;99.90;;;;;;5084158;28;20223;-50
2022/02/02 02:28:07;;;;;;;5.57;2.40;;;6.20;99.90;;;;;;5071220;28;20219;-51
2022/02/02 02:30:45;;;;;;;6.95;2.50;;;6.20;99.90;;;;;;5065035;28;20239;-51
2022/02/02 02:39:26;;;;;;;6.78;2.65;;;6.20;99.90;;;;;;5101590;27;20540;-50
2022/02/02 02:55:52;;;;;;;6.60;2.58;;;6.20;99.90;;;;;;5084612;28;20211;-50
2022/02/02 02:58:35;;;;;;;4.38;3.15;;;6.20;99.90;;;;;;5084896;28;20231;-49
2022/02/02 03:31:37;;;;;;;4.45;2.10;;;6.30;99.90;;;;;;5105410;28;20289;-50
2022/02/02 03:54:00;;;;;;;7.65;2.22;;;6.30;99.90;;;;;;5026671;28;20223;-50
2022/02/02 03:56:40;;;;;;;4.90;2.15;;;6.30;99.90;;;;;;5067576;28;20599;-50
2022/02/02 04:02:10;;;;;;;5.70;2.30;;;6.30;99.90;;;;;;5070162;28;20195;-49
2022/02/02 04:04:48;;;;;;;6.38;3.88;;;6.30;99.90;;;;;;5078132;28;20212;-50
2022/02/02 04:07:21;;;;;;;9.50;2.40;;;6.30;99.90;;;;;;5070852;28;20184;-50
2022/02/02 04:09:50;;;;;;;3.58;2.08;;;6.30;99.90;;;;;;5070338;28;20715;-50
2022/02/02 04:12:34;;;;;;;6.85;2.33;;;6.30;99.90;;;;;;5070948;28;20572;-50
2022/02/02 04:17:55;;;;;;;4.38;1.80;;;6.30;99.90;;;;;;5070031;28;20288;-50
2022/02/02 04:37:41;;;;;;;4.93;2.75;;;6.30;99.90;;;;;;5069913;28;20659;-49
2022/02/02 04:51:33;;;;;;;5.63;2.38;;;6.30;99.90;;;;;;5070085;28;20721;-49
2022/02/02 04:54:27;;;;;;;7.47;2.70;;;6.30;99.90;;;;;;5069234;28;20224;-49
2022/02/02 04:59:50;;;;;;;6.10;2.40;;;6.30;99.90;;;;;;5088780;28;20235;-50
2022/02/02 05:08:06;;;;;;;6.03;2.05;;;6.30;99.90;;;;;;5069232;28;20222;-50
2022/02/02 05:10:44;;;;;;;8.55;4.22;;;6.30;99.90;;;;;;5070216;28;20216;-51
2022/02/02 05:14:09;;;;;;;5.10;2.70;;;6.30;99.90;;;;;;5075500;28;20187;-50
2022/02/02 05:16:31;;;;;;;6.72;2.55;;;6.30;99.90;;;;;;5087065;28;20217;-50
2022/02/02 05:44:47;;;;;;;9.63;3.15;;;6.30;99.90;;;;;;5067355;28;20304;-50
2022/02/02 05:50:18;;;;;;;7.43;2.42;;;6.30;99.90;;;;;;5067938;28;20224;-49
2022/02/02 05:52:46;;;;;;;9.25;3.33;;;6.30;99.90;;;;;;5068940;28;20620;-49
2022/02/02 05:55:15;;;;;;;8.50;3.40;;;6.30;99.90;;;;;;5068298;28;20700;-50
2022/02/02 05:57:47;;;;;;;5.63;2.20;;;6.30;99.90;;;;;;5073648;28;20188;-50
2022/02/02 06:00:16;;;;;;;3.70;2.17;;;6.30;99.90;;;;;;5068667;28;20224;-50
2022/02/02 06:02:48;;;;;;;8.05;3.28;;;6.30;99.90;;;;;;5069286;28;20208;-50
2022/02/02 06:05:16;;;;;;;5.40;2.40;;;6.30;99.90;;;;;;5070688;28;20227;-50
2022/02/02 06:07:48;;;;;;;6.25;2.40;;;6.30;99.90;;;;;;5088708;28;20581;-51
2022/02/02 06:10:17;;;;;;;5.45;2.22;;;6.30;99.90;;;;;;5088109;28;20231;-50
2022/02/02 06:12:48;;;;;;;6.65;2.67;;;6.30;99.90;;;;;;5069786;28;20221;-50
2022/02/02 06:15:17;;;;;;;7.10;2.67;;;6.30;99.90;;;;;;5067795;28;20690;-50
2022/02/02 06:17:50;;;;;;;7.57;2.67;;;6.30;99.90;;;;;;5067148;28;20647;-50
2022/02/02 06:20:19;;;;;;;6.32;2.63;;;6.30;99.90;;;;;;5067673;28;20310;-50
2022/02/02 06:22:53;;;;;;;6.75;2.85;;;6.40;99.90;;;;;;5066984;28;20908;-49
2022/02/02 06:25:24;;;;;;;8.30;2.65;;;6.40;99.90;;;;;;5067590;28;20219;-50
2022/02/02 06:28:00;;;;;;;4.93;2.47;;;6.30;99.90;;;;;;5070805;28;20718;-51
2022/02/02 06:30:30;;;;;;;8.95;2.70;;;6.30;99.90;;;;;;5068651;28;20247;-50
2022/02/02 06:33:05;;;;;;;8.82;3.28;;;6.40;99.90;;;;;;5068624;28;20196;-49
2022/02/02 06:35:34;;;;;;;7.20;2.83;;;6.40;99.90;;;;;;5068580;28;20194;-50
2022/02/02 06:38:03;;;;;;;6.95;2.30;;;6.40;99.90;;;;;;5086645;28;20228;-49
2022/02/02 06:40:35;;;;;;;7.82;2.30;;;6.40;99.90;;;;;;5084817;28;20230;-50
2022/02/02 06:43:06;;;;;;;6.13;3.28;;;6.40;99.90;;;;;;5068022;28;20249;-47
2022/02/02 06:45:35;;;;;;;6.18;2.65;;;6.40;99.90;;;;;;5068511;28;20717;-49
2022/02/02 06:48:04;;;;;;;7.07;2.53;;;6.40;99.90;;;;;;5067178;28;20668;-48
2022/02/02 06:50:37;;;;;;;8.18;3.47;;;6.40;99.90;;;;;;5068335;28;20235;-50
2022/02/02 06:53:18;;;;;;;5.90;2.13;;;6.40;99.90;;;;;;5067917;28;20213;-50
2022/02/02 06:56:05;;;;;;;6.45;2.65;;;6.40;99.90;;;;;;5068001;28;20211;-49
2022/02/02 06:58:45;;;;;;;5.60;2.80;;;6.40;99.90;;;;;;5068146;28;20219;-51
2022/02/02 07:01:31;;;;;;;5.90;2.70;;;6.40;99.90;;;;;;5068554;28;20200;-51
2022/02/02 07:04:15;;;;;;;4.18;2.30;;;6.40;99.90;;;;;;5080466;28;20223;-50
2022/02/02 07:06:54;;;;;;;10.15;2.65;;;6.40;99.90;;;;;;5088845;28;20206;-50
2022/02/02 07:09:43;;;;;;;8.43;3.03;;;6.40;99.90;;;;;;5088107;28;20284;-50
2022/02/02 07:12:24;;;;;;;7.65;2.63;;;6.40;99.90;;;;;;5087256;28;20246;-50
2022/02/02 07:15:13;;;;;;;6.32;2.80;;;6.40;99.90;;;;;;5068130;28;20228;-50
2022/02/02 07:17:49;;;;;;;6.53;2.67;;;6.40;99.90;;;;;;5068646;28;20260;-49
2022/02/02 07:20:27;;;;;;;6.78;2.40;;;6.40;99.90;;;;;;5068433;28;20231;-49
2022/02/02 07:23:26;;;;;;;6.82;2.30;;;6.40;99.90;;;;;;5084447;28;20191;-50
2022/02/02 07:26:21;;;;;;;3.88;2.30;;;6.40;99.90;;;;;;5084366;28;20571;-50
2022/02/02 07:28:59;;;;;;;8.13;2.83;;;6.40;99.90;;;;;;5071868;28;20219;-49
2022/02/02 07:31:42;;;;;;;10.32;3.03;;;6.40;99.90;;;;;;5072079;28;20309;-50
2022/02/02 07:34:20;;;;;;;6.60;2.55;;;6.40;99.90;;;;;;5071015;28;20215;-49
2022/02/02 07:36:54;;;;;;;7.43;3.35;;;6.40;99.90;;;;;;5089444;28;20190;-50
2022/02/02 07:39:26;;;;;;;3.83;1.98;;;6.40;99.90;;;;;;5090556;28;20648;-49
2022/02/02 07:41:59;;;;;;;9.75;2.85;;;6.40;99.90;;;;;;5075752;28;20199;-49
2022/02/02 07:44:31;;;;;;;6.00;2.33;;;6.40;99.90;;;;;;5071401;28;20215;-49
2022/02/02 07:47:06;;;;;;;9.20;2.20;;;6.40;99.90;;;;;;5072355;28;20203;-50
2022/02/02 07:49:38;;;;;;;6.07;2.95;;;6.40;99.90;;;;;;5072212;28;20243;-49
2022/02/02 07:52:08;;;;;;;12.07;2.85;;;6.40;99.90;;;;;;5072650;28;20192;-49
2022/02/02 07:54:40;;;;;;;9.43;2.45;;;6.40;99.90;;;;;;5072863;28;20861;-50
2022/02/02 07:57:27;;;;;;;6.53;3.25;;;6.40;99.90;;;;;;5072670;28;20198;-50
2022/02/02 07:59:59;;;;;;;5.88;2.55;;;6.40;99.90;;;;;;5072045;28;20242;-49
2022/02/02 08:02:42;;;;;;;6.70;2.25;;;6.40;99.90;;;;;;5073526;28;20188;-49
2022/02/02 08:05:12;;;;;;;12.98;3.13;;;6.40;99.90;;;;;;5070953;28;20236;-50
2022/02/02 08:07:45;;;;;;;8.20;2.33;;;6.40;99.90;;;;;;5072450;28;20192;-50
2022/02/02 08:10:17;;;;;;;4.40;2.78;;;6.40;99.90;;;;;;5081026;28;20771;-50
2022/02/02 08:12:48;;;;;;;2.80;2.10;;;6.40;99.90;;;;;;5078002;28;20247;-50
2022/02/02 08:15:19;;;;;;;5.63;2.50;;;6.40;99.90;;;;;;5075137;28;20231;-50
2022/02/02 08:17:50;;;;;;;4.65;2.10;;;6.40;99.90;;;;;;5072389;28;20207;-49
2022/02/02 08:20:19;;;;;;;8.23;2.20;;;6.40;99.90;;;;;;5070941;28;20499;-51
2022/02/02 08:22:47;;;;;;;9.88;2.60;;;6.40;99.90;;;;;;5071650;28;20602;-50
2022/02/02 08:25:25;;;;;;;10.43;3.45;;;6.40;99.90;;;;;;5070999;28;20220;-48
2022/02/02 08:27:54;;;;;;;5.80;2.53;;;6.40;99.90;;;;;;5074616;28;20589;-50
2022/02/02 08:30:26;;;;;;;4.18;2.42;;;6.40;99.90;;;;;;5090962;28;20233;-49
2022/02/02 08:32:57;;;;;;;5.63;2.40;;;6.40;99.90;;;;;;5087520;28;20201;-49
2022/02/02 08:35:29;;;;;;;11.60;2.78;;;6.40;99.90;;;;;;5084814;28;20234;-49
2022/02/02 08:38:05;;;;;;;5.78;2.30;;;6.40;99.90;;;;;;5071632;28;20617;-49
2022/02/02 08:40:38;;;;;;;7.65;2.95;;;6.40;99.90;;;;;;5071196;28;20272;-49
2022/02/02 08:43:11;;;;;;;4.47;2.40;;;6.40;99.90;;;;;;5072484;28;20275;-50
2022/02/02 08:45:42;;;;;;;5.90;2.20;;;6.40;99.90;;;;;;5071080;28;20253;-50
2022/02/02 08:48:18;;;;;;;8.13;2.80;;;6.40;99.90;;;;;;5070467;28;20184;-50
2022/02/02 08:50:51;;;;;;;5.90;2.25;;;6.40;99.90;;;;;;5071869;28;20219;-50
2022/02/02 08:53:32;;;;;;;8.45;3.00;;;6.40;99.90;;;;;;5071799;28;20201;-51
2022/02/02 08:56:13;;;;;;;6.75;2.60;;;6.50;99.90;;;;;;5078211;28;20189;-50
2022/02/02 08:58:44;;;;;;;8.40;2.08;;;6.50;99.90;;;;;;5088409;28;21092;-50
2022/02/02 09:01:20;;;;;;;5.30;2.25;;;6.50;99.90;;;;;;5090210;28;20211;-50
2022/02/02 09:06:35;;;;;;;7.70;3.22;;;6.50;99.90;;;;;;5079156;28;20592;-50
2022/02/02 09:09:11;;;;;;;6.30;2.60;;;6.50;99.90;;;;;;5090411;28;20234;-50
2022/02/02 09:20:08;;;;;;;5.60;3.05;;;6.50;99.90;;;;;;5087950;28;20249;-50
2022/02/02 09:25:25;;;;;;;6.10;2.90;;;6.50;99.90;;;;;;5072845;28;20633;-50
2022/02/02 09:36:17;;;;;;;4.88;3.20;;;6.50;99.90;;;;;;5084684;28;20193;-50
2022/02/02 09:38:46;;;;;;;5.70;2.08;;;6.50;99.90;;;;;;5088498;28;20222;-50
2022/02/02 09:41:29;;;;;;;5.65;2.75;;;6.50;99.90;;;;;;5079951;28;20314;-50
2022/02/02 09:44:00;;;;;;;3.35;2.33;;;6.50;99.90;;;;;;5067492;28;20222;-49
2022/02/02 09:46:33;;;;;;;8.07;2.60;;;6.50;99.90;;;;;;5068263;28;20191;-50
2022/02/02 09:49:06;;;;;;;8.43;2.88;;;6.50;99.90;;;;;;5071759;28;20250;-50
2022/02/02 09:51:44;;;;;;;6.45;2.90;;;6.50;99.90;;;;;;5068896;28;20234;-50
2022/02/02 09:54:18;;;;;;;7.60;2.15;;;6.50;99.90;;;;;;5067560;28;20588;-50
2022/02/02 10:03:22;;;;;;;5.63;3.20;;;6.50;99.90;;;;;;5082311;28;20207;-50
2022/02/02 10:06:02;;;;;;;3.65;2.22;;;6.60;99.90;;;;;;5067771;28;20689;-50
2022/02/02 10:14:39;;;;;;;9.50;3.15;;;6.60;99.90;;;;;;5076865;28;20223;-49
2022/02/02 10:17:11;;;;;;;8.18;3.00;;;6.60;99.90;;;;;;5087790;28;20199;-50
2022/02/02 10:19:39;;;;;;;7.63;2.70;;;6.60;99.90;;;;;;5087396;28;20276;-50
2022/02/02 10:22:28;;;;;;;6.65;2.53;;;6.60;99.90;;;;;;5087044;28;20219;-49
2022/02/02 10:25:00;;;;;;;9.63;2.90;;;6.60;99.90;;;;;;5085685;28;20219;-51
2022/02/02 10:27:35;;;;;;;9.52;2.97;;;6.60;99.90;;;;;;5068970;28;20199;-50
2022/02/02 10:30:17;;;;;;;10.70;2.63;;;6.60;99.90;;;;;;5067896;28;20232;-50
2022/02/02 10:32:48;;;;;;;6.70;2.70;;;6.60;99.90;;;;;;5068477;28;20192;-51
2022/02/02 10:35:31;;;;;;;4.43;3.20;;;6.60;99.90;;;;;;5067424;28;20567;-50
2022/02/02 10:38:19;;;;;;;7.88;3.08;;;6.60;99.90;;;;;;5067892;28;20208;-49
2022/02/02 10:40:53;;;;;;;5.63;2.88;;;6.60;99.90;;;;;;5068048;28;20212;-50
2022/02/02 10:43:33;;;;;;;9.38;3.35;;;6.60;99.90;;;;;;5083983;28;20192;-50
2022/02/02 10:46:11;;;;;;;5.47;2.97;;;6.60;99.90;;;;;;5087890;28;20286;-49
2022/02/02 10:48:43;;;;;;;10.30;3.58;;;6.60;99.90;;;;;;5086515;28;20237;-51
2022/02/02 10:51:19;;;;;;;11.77;3.65;;;6.60;99.90;;;;;;5087132;28;20633;-50
2022/02/02 10:56:53;;;;;;;7.30;2.97;;;6.60;99.90;;;;;;5064920;28;20188;-50
2022/02/02 11:07:41;;;;;;;5.88;2.70;;;6.60;99.90;;;;;;5071793;28;20563;-50
2022/02/02 11:10:13;;;;;;;8.73;3.25;;;6.60;99.90;;;;;;5071222;28;20318;-50
2022/02/02 11:12:44;;;;;;;6.40;3.65;;;6.60;99.90;;;;;;5081645;28;20663;-50
2022/02/02 11:15:36;;;;;;;8.82;3.40;;;6.60;99.90;;;;;;5077306;28;20657;-50
2022/02/02 11:18:15;;;;;;;9.85;3.90;;;6.60;99.90;;;;;;5068054;28;20200;-50
2022/02/02 11:20:45;;;;;;;9.35;3.60;;;6.60;99.90;;;;;;5070618;28;20222;-49
2022/02/02 11:23:14;;;;;;;10.25;3.05;;;6.60;99.90;;;;;;5070871;28;20203;-49
2022/02/02 11:25:50;;;;;;;5.65;3.35;;;6.60;99.90;;;;;;5070958;28;20192;-50
2022/02/02 11:28:30;;;;;;;8.95;3.53;;;6.60;99.90;;;;;;5079849;28;20187;-50
2022/02/02 11:31:11;;;;;;;9.20;3.22;;;6.60;99.90;;;;;;5093032;28;20195;-49
2022/02/02 11:33:53;;;;;;;7.75;3.38;;;6.60;99.90;;;;;;5089421;28;20218;-51
2022/02/02 11:36:29;;;;;;;9.35;4.00;;;6.60;99.90;;;;;;5071315;28;20233;-50
2022/02/02 11:39:00;;;;;;;5.72;3.40;;;6.60;99.90;;;;;;5087451;28;20218;-49
2022/02/02 11:44:39;;;;;;;9.50;4.28;;;6.70;99.90;;;;;;5070195;28;20219;-49
2022/02/02 11:47:12;;;;;;;9.13;3.65;;;6.60;99.90;;;;;;5069887;28;20709;-49
2022/02/02 11:49:51;;;;;;;5.85;2.85;;;6.70;99.90;;;;;;5070336;28;20212;-49
2022/02/02 11:52:38;;;;;;;9.70;4.20;;;6.70;99.90;;;;;;5081686;28;20192;-51
2022/02/02 11:55:08;;;;;;;7.53;2.83;;;6.70;99.90;;;;;;5089481;28;20602;-50
2022/02/02 11:57:58;;;;;;;4.75;2.65;;;6.70;99.90;;;;;;5083168;28;20204;-49
2022/02/02 12:00:37;;;;;;;4.30;2.85;;;6.70;99.90;;;;;;5077960;28;20231;-50
2022/02/02 12:03:18;;;;;;;7.32;2.97;;;6.70;99.90;;;;;;5076513;28;20215;-50
2022/02/02 12:05:59;;;;;;;5.93;2.80;;;6.70;99.90;;;;;;5077071;28;20361;-50
2022/02/02 12:08:45;;;;;;;8.68;2.90;;;6.70;99.90;;;;;;5090360;28;20600;-50
2022/02/02 12:11:56;;;;;;;5.57;2.80;;;6.70;99.90;;;;;;5079640;28;20196;-50
2022/02/02 12:50:00;;;;;;;9.73;3.95;;;6.70;99.90;;;;;;5069152;28;20231;-50
2022/02/02 12:58:11;;;;;;;8.75;4.45;;;6.70;99.90;;;;;;5080546;28;20211;-50
2022/02/02 13:01:08;;;;;;;7.57;4.13;;;6.80;99.90;;;;;;5069355;28;20216;-51
2022/02/02 13:03:37;;;;;;;8.00;3.38;;;6.70;99.90;;;;;;5068717;28;20235;-50
2022/02/02 13:06:12;;;;;;;5.32;2.80;;;6.80;99.90;;;;;;5082916;28;20715;-50
2022/02/02 13:08:42;;;;;;;8.93;4.63;;;6.80;99.90;;;;;;5078646;28;20242;-49
2022/02/02 13:11:10;;;;;;;6.57;3.60;;;6.80;99.90;;;;;;5087753;28;20191;-50
2022/02/02 13:13:45;;;;;;;4.80;3.35;;;6.80;99.90;;;;;;5076337;28;20289;-49
2022/02/02 13:16:24;;;;;;;8.10;4.28;;;6.80;99.90;;;;;;5071439;28;20215;-49
2022/02/02 13:18:56;;;;;;;7.63;3.65;;;6.80;99.90;;;;;;5080662;28;20248;-50
2022/02/02 13:21:28;;;;;;;5.45;4.07;;;6.80;99.90;;;;;;5073024;28;20198;-49
2022/02/02 13:24:07;;;;;;;8.20;4.10;;;6.80;99.90;;;;;;5077767;28;20221;-49
2022/02/02 13:26:41;;;;;;;8.63;3.80;;;6.80;99.90;;;;;;5069489;28;20196;-51
2022/02/02 13:29:19;;;;;;;5.80;3.50;;;6.80;99.90;;;;;;5068071;28;20234;-50
2022/02/02 13:31:57;;;;;;;5.65;3.63;;;6.80;99.90;;;;;;5083592;28;20213;-50
2022/02/02 13:34:41;;;;;;;8.02;4.03;;;6.80;99.90;;;;;;5081958;28;20222;-50
2022/02/02 13:37:34;;;;;;;5.65;3.55;;;6.80;99.90;;;;;;5083707;28;20191;-49
2022/02/02 13:45:54;;;;;;;5.18;3.65;;;6.80;99.90;;;;;;5088881;28;20299;-49
2022/02/02 13:51:38;;;;;;;7.45;3.58;;;6.90;99.90;;;;;;5006497;28;20688;-50
2022/02/02 13:54:36;;;;;;;7.05;3.88;;;6.80;99.90;;;;;;5061042;28;20216;-50
2022/02/02 13:57:56;;;;;;;6.88;3.05;;;6.80;99.90;;;;;;5068304;28;20188;-50
2022/02/02 14:00:53;;;;;;;10.25;3.70;;;6.90;99.90;;;;;;5068905;28;20703;-50
2022/02/02 14:06:21;;;;;;;4.70;4.20;;;6.90;99.90;;;;;;5067328;28;20220;-49
2022/02/02 14:09:06;;;;;;;7.70;3.58;;;6.90;99.90;;;;;;5068681;28;20231;-50
2022/02/02 14:31:09;;;;;;;11.45;4.53;;;6.90;99.90;;;;;;5067555;28;20438;-50
2022/02/02 14:33:57;;;;;;;7.22;4.20;;;6.90;99.90;;;;;;5068283;28;20709;-51
2022/02/02 14:36:31;;;;;;;7.70;4.32;;;6.90;99.90;;;;;;5084240;28;20302;-50
2022/02/02 14:39:07;;;;;;;6.97;4.65;;;6.90;99.90;;;;;;5067925;28;20250;-49
2022/02/02 14:41:39;;;;;;;7.30;4.38;;;6.90;99.90;;;;;;5068230;28;20188;-50
2022/02/02 14:44:13;;;;;;;5.53;3.67;;;6.90;99.90;;;;;;5066125;28;20225;-49
2022/02/02 14:46:58;;;;;;;6.97;3.65;;;6.90;99.90;;;;;;5084940;28;20724;-50
2022/02/02 14:49:32;;;;;;;6.75;3.80;;;6.90;99.90;;;;;;5070342;28;20648;-49
2022/02/02 14:52:09;;;;;;;8.43;4.25;;;6.90;99.90;;;;;;5068175;28;20188;-50
2022/02/02 14:54:54;;;;;;;4.88;4.40;;;6.90;99.90;;;;;;5067626;28;20242;-50
2022/02/02 15:28:45;;;;;;;4.38;2.97;;;6.90;99.90;;;;;;5066767;28;20239;-49
2022/02/02 15:31:13;;;;;;;5.40;3.63;;;6.90;99.90;;;;;;5067986;28;20188;-50
2022/02/02 15:33:43;;;;;;;4.40;3.40;;;6.90;99.90;;;;;;5068119;28;20678;-50
2022/02/02 15:39:00;;;;;;;10.98;4.68;;;6.90;99.90;;;;;;5036102;28;20237;-49
2022/02/02 15:41:36;;;;;;;6.95;3.80;;;6.90;99.90;;;;;;5069334;28;20284;-49
2022/02/02 15:55:36;;;;;;;6.80;3.83;;;6.90;99.90;;;;;;5070842;28;20784;-50
2022/02/02 15:58:11;;;;;;;5.00;3.00;;;6.90;99.90;;;;;;5071110;28;20188;-49
2022/02/02 16:03:27;;;;;;;8.20;3.75;;;6.90;99.90;;;;;;5080408;28;20214;-50
2022/02/02 16:06:00;;;;;;;4.78;3.38;;;6.90;99.90;;;;;;5088520;28;20219;-49
2022/02/02 16:08:29;;;;;;;5.53;3.92;;;6.90;99.90;;;;;;5090825;28;20194;-51
2022/02/02 16:11:14;;;;;;;4.72;3.55;;;6.90;99.90;;;;;;5074823;28;20192;-49
2022/02/02 16:13:48;;;;;;;5.93;3.15;;;6.90;99.90;;;;;;5070048;28;20654;-50
2022/02/02 16:16:40;;;;;;;3.47;3.17;;;6.90;99.90;;;;;;5081839;28;20192;-49
2022/02/02 16:19:16;;;;;;;6.85;3.67;;;6.90;99.90;;;;;;5075969;28;20224;-49
2022/02/02 16:24:50;;;;;;;7.18;3.38;;;6.90;99.90;;;;;;5070161;28;20219;-49
2022/02/02 16:38:21;;;;;;;4.13;3.05;;;6.90;99.90;;;;;;5074482;28;20713;-49
2022/02/02 16:40:52;;;;;;;7.18;3.83;;;6.90;99.90;;;;;;5070493;28;20217;-50
2022/02/02 16:43:20;;;;;;;6.90;3.20;;;7.00;99.90;;;;;;5070004;28;20581;-50
2022/02/02 16:45:50;;;;;;;4.97;2.45;;;7.00;99.90;;;;;;5070520;28;20189;-50
2022/02/02 16:48:19;;;;;;;8.57;3.00;;;7.00;99.90;;;;;;5073849;28;20204;-50
2022/02/02 16:50:50;;;;;;;5.55;3.70;;;7.00;99.90;;;;;;5070482;28;20222;-51
2022/02/02 16:53:39;;;;;;;4.30;2.55;;;7.00;99.90;;;;;;5070617;28;20610;-50
2022/02/02 16:56:24;;;;;;;4.50;3.42;;;7.00;99.90;;;;;;5084475;28;20605;-50
2022/02/02 17:24:32;;;;;;;4.13;2.97;;;7.00;99.90;;;;;;5079855;28;20622;-50
2022/02/02 17:29:55;;;;;;;5.40;3.70;;;7.00;99.90;;;;;;5066618;28;20240;-50
2022/02/02 17:32:34;;;;;;;4.20;3.15;;;7.00;99.90;;;;;;5069893;28;20193;-50
2022/02/02 17:35:22;;;;;;;4.18;2.85;;;7.00;99.90;;;;;;5069560;28;20832;-51
2022/02/02 17:37:59;;;;;;;3.38;3.05;;;7.00;99.90;;;;;;5069929;28;20211;-50
2022/02/02 17:40:41;;;;;;;4.65;3.28;;;7.00;99.90;;;;;;5069339;28;20258;-51
2022/02/02 17:43:26;;;;;;;5.25;2.78;;;7.00;99.90;;;;;;5072928;28;20201;-49
2022/02/02 17:46:03;;;;;;;5.15;2.90;;;7.00;99.90;;;;;;5069388;28;20287;-50
2022/02/02 18:19:53;;;;;;;3.40;2.95;;;7.00;99.90;;;;;;5013007;28;20232;-50
2022/02/02 18:22:25;;;;;;;2.75;2.55;;;7.00;99.90;;;;;;5060877;28;20198;-49
2022/02/02 18:25:02;;;;;;;3.22;2.88;;;7.00;99.90;;;;;;5087441;28;20242;-51
2022/02/02 18:27:39;;;;;;;4.20;3.08;;;7.00;99.90;;;;;;5069868;28;20196;-50
2022/02/02 18:30:21;;;;;;;2.95;2.75;;;7.00;99.90;;;;;;5069282;28;20223;-50
2022/02/02 18:33:03;;;;;;;3.40;3.08;;;7.00;99.90;;;;;;5069107;28;20624;-50
2022/02/02 18:35:38;;;;;;;3.20;2.80;;;7.00;99.90;;;;;;5069184;28;20318;-50
2022/02/02 18:46:45;;;;;;;3.78;3.25;;;7.10;99.90;;;;;;5081039;28;20290;-50
2022/02/02 18:49:24;;;;;;;3.42;3.13;;;7.10;99.90;;;;;;5084563;28;20231;-49
2022/02/02 18:54:51;;;;;;;3.33;3.03;;;7.00;99.90;;;;;;5063718;28;20478;-50
2022/02/02 18:57:30;;;;;;;3.88;2.85;;;7.10;99.90;;;;;;5073539;28;20223;-50
2022/02/02 19:00:19;;;;;;;3.33;3.03;;;7.10;99.90;;;;;;5073335;28;20694;-50
2022/02/02 19:31:22;;;;;;;3.35;2.70;;;7.10;99.90;;;;;;5088580;28;20297;-50
2022/02/02 19:54:38;;;;;;;2.70;2.50;;;7.10;99.90;;;;;;5090034;28;20587;-51
2022/02/02 19:56:50;;;;;;;3.70;3.40;;;7.10;99.90;;;;;;5083014;28;20555;-49
2022/02/02 20:02:28;;;;;;;4.30;3.58;;;7.10;99.90;;;;;;5070957;28;20186;-50
2022/02/02 20:05:05;;;;;;;3.80;2.75;;;7.10;99.90;;;;;;5070883;28;20535;-50
2022/02/02 20:07:51;;;;;;;3.20;2.90;;;7.10;99.90;;;;;;5080474;28;20442;-50
2022/02/02 20:13:01;;;;;;;3.25;2.95;;;7.10;99.90;;;;;;5069030;28;20211;-49
2022/02/02 20:15:37;;;;;;;2.92;2.72;;;7.10;99.90;;;;;;5069935;28;20216;-50
2022/02/02 20:18:05;;;;;;;3.90;2.90;;;7.10;99.90;;;;;;5076775;28;20677;-50
2022/02/02 20:20:37;;;;;;;3.85;3.13;;;7.10;99.90;;;;;;5069392;28;20212;-50
2022/02/02 20:23:06;;;;;;;3.40;3.10;;;7.10;99.90;;;;;;5070842;28;20291;-50
2022/02/02 20:25:37;;;;;;;5.28;3.45;;;7.10;99.90;;;;;;5069149;28;20322;-50
2022/02/02 20:28:06;;;;;;;3.47;3.13;;;7.10;99.90;;;;;;5073749;28;20193;-50
2022/02/02 20:30:38;;;;;;;3.78;2.88;;;7.10;99.90;;;;;;5089371;28;20313;-50
2022/02/02 20:33:07;;;;;;;4.05;3.33;;;7.10;99.90;;;;;;5083526;28;20617;-50
2022/02/02 20:35:35;;;;;;;3.42;3.10;;;7.10;99.90;;;;;;5069355;28;20224;-50
2022/02/02 20:38:03;;;;;;;2.83;2.53;;;7.10;99.90;;;;;;5069514;28;20353;-50
2022/02/02 20:40:32;;;;;;;3.30;3.00;;;7.10;99.90;;;;;;5069793;28;20533;-50
2022/02/02 20:43:06;;;;;;;4.72;2.83;;;7.10;99.90;;;;;;5069766;28;20196;-49
2022/02/02 21:05:35;;;;;;;3.28;2.92;;;7.10;99.90;;;;;;5068423;28;20215;-50
2022/02/02 21:10:51;;;;;;;3.60;3.40;;;7.20;99.90;;;;;;5069373;28;20221;-50
2022/02/02 21:16:05;;;;;;;3.10;2.78;;;7.20;99.90;;;;;;5068829;28;20724;-49
2022/02/02 21:18:37;;;;;;;3.65;3.33;;;7.20;99.90;;;;;;5069371;28;20296;-51
2022/02/02 21:21:16;;;;;;;4.60;3.70;;;7.20;99.90;;;;;;5090040;28;20265;-49
2022/02/02 21:24:17;;;;;;;3.20;2.88;;;7.20;99.90;;;;;;5087538;28;20253;-51
2022/02/02 21:26:58;;;;;;;4.10;2.70;;;7.20;99.90;;;;;;5068781;28;20214;-51
2022/02/02 21:29:27;;;;;;;4.15;3.28;;;7.10;99.90;;;;;;5068732;28;20260;-50
2022/02/02 21:31:55;;;;;;;4.00;3.20;;;7.20;99.90;;;;;;5069531;28;20455;-51
2022/02/02 21:34:25;;;;;;;3.65;3.00;;;7.20;99.90;;;;;;5073940;28;20215;-50
2022/02/02 21:36:55;;;;;;;3.25;2.95;;;7.20;99.90;;;;;;5089583;28;20294;-50
2022/02/02 21:39:25;;;;;;;4.05;3.58;;;7.20;99.90;;;;;;5087276;28;20290;-50
2022/02/02 21:41:54;;;;;;;4.68;3.30;;;7.20;99.90;;;;;;5074206;28;20199;-50
2022/02/02 21:44:22;;;;;;;3.78;2.70;;;7.20;99.90;;;;;;5087860;28;20617;-50
2022/02/02 21:46:53;;;;;;;3.42;3.13;;;7.20;99.90;;;;;;5068761;28;20692;-51
2022/02/02 21:49:23;;;;;;;3.97;3.53;;;7.20;99.90;;;;;;5083811;28;20225;-49